Lokaal Brand Risico
CBI


Neerslagradar Meer informatie rain snow radar


Onweersbuien Meer informatie Boltek Parkstad!


24/7 Weercamera Meer informatie Webcam







Het weer levert geen direct gevaar op in Parkstad (045)    Er zijn geen waarschuwingen afgegeven voor Parkstad (045)

METAR rapporten vliegvelden

   
EHBK - Beek Nederland
Gewijzigd: 24-09-2017 20:55
Gedeeltelijk bewolkt  
Gedeeltelijk bewolkt  
   Wind: ONO 11.1 km/h
Wind: ONO 11.1 km/h
Temperatuur: 14°C
Dauwpunt: 11°C
Vochtigheid: 82%
Barometer: 1022 hPa
Satelliet beelden: Gedeeltelijk bewolkt
Zicht: meer dan 10 km
Bewolking: Gedeeltelijk bewolkt
EHBK 241855Z AUTO 06006KT 9999 NSC 14/11 Q1022 NOSIG
EHBK - Maastricht Nederland
Gewijzigd: 24-09-2017 20:55
Gedeeltelijk bewolkt  
Gedeeltelijk bewolkt  
   Wind: ONO 11.1 km/h
Wind: ONO 11.1 km/h
Temperatuur: 14°C
Dauwpunt: 11°C
Vochtigheid: 82%
Barometer: 1022 hPa
Satelliet beelden: Gedeeltelijk bewolkt
Zicht: meer dan 10 km
Bewolking: Gedeeltelijk bewolkt
EHBK 241855Z AUTO 06006KT 9999 NSC 14/11 Q1022 NOSIG
EBLG - Liège België
Gewijzigd: 24-09-2017 20:50
Helder  
Helder  
   Wind: ONO 7.4 km/h
Wind: ONO 7.4 km/h
Temperatuur: 15°C
Dauwpunt: 10°C
Vochtigheid: 72%
Barometer: 1022 hPa
Zicht: meer dan 10 km
Bewolking: Helder
EBLG 241850Z 07004KT CAVOK 15/10 Q1022 NOSIG
EDDK - Köln/Bonn Duitsland
Gewijzigd: 24-09-2017 20:50
Grondmist, Licht bewolkt  
Grondmist, Licht bewolkt  
   Wind: ONO 13 km/h
Wind: ONO 13 km/h
Temperatuur: 14°C
Dauwpunt: 13°C
Vochtigheid: 94%
Barometer: 1022 hPa
Satelliet beelden: Licht bewolkt
Zicht: meer dan 10 km
Bewolking: Licht bewolkt 4100 ft
EDDK 241850Z 06007KT 9999 MIFG FEW041 14/13 Q1022 NOSIG
EDDL - Düsseldorf Duitsland
Gewijzigd: 24-09-2017 20:50
Helder  
Helder  
   Wind: NO 5.6 km/h
Wind: NO 5.6 km/h
Temperatuur: 13°C
Dauwpunt: 11°C
Vochtigheid: 88%
Barometer: 1022 hPa
Zicht: meer dan 10 km
Bewolking: Helder
EDDL 241850Z 05003KT CAVOK 13/11 Q1022 NOSIG
EHEH - Eindhoven Nederland
Gewijzigd: 24-09-2017 20:55
Nevel, Licht bewolkt  
Nevel, Licht bewolkt  
   Wind: NNO 7.4 km/h
Wind: NNO 7.4 km/h
Temperatuur: 13°C
Dauwpunt: 11°C
Vochtigheid: 88%
Barometer: 1022 hPa
Satelliet beelden: Licht bewolkt
Zicht: 7 km
Bewolking: Licht bewolkt 10000 ft
EHEH 241855Z AUTO 03004KT 7000 BR FEW100 13/11 Q1022 WHT 04003KT 5000 BR NSC BECMG VRB01KT 4000
ELLX - Luxemburg Luxemburg
Gewijzigd: 24-09-2017 20:50
Helder  
Helder  
   Wind: ONO 11.1 km/h
Wind: ONO 11.1 km/h
Temperatuur: 15°C
Dauwpunt: 10°C
Vochtigheid: 72%
Barometer: 1022 hPa
Zicht: meer dan 10 km
Bewolking: Helder
ELLX 241850Z 06006KT CAVOK 15/10 Q1022 NOSIG
EGLL - London England
Gewijzigd: 24-09-2017 20:50
Wat regen mogelijk, Licht bewolkt  
Wat regen mogelijk, Licht bewolkt  
   Wind: OZO 9.3 km/h
Wind: OZO 9.3 km/h
Temperatuur: 18°C
Dauwpunt: 11°C
Vochtigheid: 64%
Barometer: 1019 hPa
Satelliet beelden: Licht bewolkt
Zicht: meer dan 10 km
Bewolking: Licht bewolkt 4900 ft
EGLL 241850Z AUTO 12005KT 9999 -RA FEW049 18/11 Q1019 NOSIG
EBAW - Antwerpen België
Gewijzigd: 24-09-2017 20:50
Gedeeltelijk bewolkt  
Gedeeltelijk bewolkt  
   Wind: ONO 7.4 km/h
Wind: ONO 7.4 km/h
Temperatuur: 14°C
Dauwpunt: 11°C
Vochtigheid: 82%
Barometer: 1022 hPa
Satelliet beelden: Gedeeltelijk bewolkt
Zicht: 9 km
Bewolking: Gedeeltelijk bewolkt
EBAW 241850Z 07004KT 9000 NSC 14/11 Q1022 NOSIG
EBOS - Oostende België
Gewijzigd: 24-09-2017 20:50
Helder  
Helder  
   Wind: Oosten 13 km/h
Wind: Oosten 13 km/h
Temperatuur: 15°C
Dauwpunt: 11°C
Vochtigheid: 77%
Barometer: 1021 hPa
Zicht: meer dan 10 km
Bewolking: Helder
EBOS 241850Z 09007KT CAVOK 15/11 Q1021 NOSIG
LEAL - La Nucia Spanje
Gewijzigd: 24-09-2017 21:00
Helder  
Helder  
   Wind: Oosten 5.6 km/h
Wind: Oosten 5.6 km/h
Temperatuur: 23°C
Dauwpunt: 20°C
Vochtigheid: 83%
Barometer: 1020 hPa
Zicht: meer dan 10 km
Bewolking: Helder
LEAL 241900Z 09003KT CAVOK 23/20 Q1020 NOSIG
TNCA - Oranjestad Aruba
Gewijzigd: 24-09-2017 21:00
Licht bewolkt  
Licht bewolkt  
   Wind: Oosten 31.5 km/h
Wind: Oosten 31.5 km/h
Temperatuur: 35°C
Gevoelstemperatuur: 45°C
Dauwpunt: 26°C
Vochtigheid: 60%
Barometer: 1008 hPa
Satelliet beelden: Licht bewolkt
Zicht: meer dan 10 km
Bewolking: Licht bewolkt 2300 ft
TNCA 241900Z 09017KT 9999 FEW023 35/26 Q1008 A2978 NOSIG
TNCC - Willemstad Curacao
Gewijzigd: 24-09-2017 21:00
Licht bewolkt  
Licht bewolkt  
   Wind: Oosten 24.1 km/h
Wind: Oosten 24.1 km/h
Temperatuur: 32°C
Gevoelstemperatuur: 41°C
Dauwpunt: 26°C
Vochtigheid: 71%
Barometer: 1009 hPa
Satelliet beelden: Licht bewolkt
Zicht: meer dan 10 km
Bewolking: Licht bewolkt 2600 ft
TNCC 241900Z 09013KT 9999 FEW026 32/26 Q1009 NOSIG
MTPP - Port au Prince Haitië
Gewijzigd: 24-09-2017 21:00
Gedeeltelijk bewolkt  
Gedeeltelijk bewolkt  
   Wind: Oosten 13 km/h
Wind: Oosten 13 km/h
Temperatuur: 36°C
Gevoelstemperatuur: 41°C
Dauwpunt: 22°C
Vochtigheid: 44%
Barometer: 1008 hPa
Satelliet beelden: Gedeeltelijk bewolkt
Zicht: meer dan 10 km
Bewolking: Licht bewolkt 2800 ft,
Gedeeltelijk bewolkt 22000 ft
MTPP 241900Z 10007KT 9999 FEW028CB SCT220 36/22 Q1008 A2979 RMK/CB/NE
ENVA - Trondheim Noorwegen
Gewijzigd: 24-09-2017 20:50
Helder  
Helder  
   Wind: OZO 7.4 km/h
Wind: OZO 7.4 km/h
Temperatuur: 17°C
Dauwpunt: 9°C
Vochtigheid: 59%
Barometer: 1032 hPa
Zicht: meer dan 10 km
Bewolking: Helder
ENVA 241850Z 11004KT 050V140 CAVOK 17/09 Q1032 RMK WIND 670FT 15012KT
ENBO - Bodø Noorwegen
Gewijzigd: 24-09-2017 20:50
Helder  
Helder  
   Wind: Oosten 18.5 km/h
Wind: Oosten 18.5 km/h
Temperatuur: 14°C
Dauwpunt: 9°C
Vochtigheid: 72%
Barometer: 1033 hPa
Zicht: meer dan 10 km
Bewolking: Helder
ENBO 241850Z 09010KT CAVOK 14/09 Q1033 NOSIG
ETNG - Geilenkirchen Duitsland
Gewijzigd: 24-09-2017 20:50
Helder  
Helder  
   Wind: ONO 3.7 km/h
Wind: ONO 3.7 km/h
Temperatuur: 13°C
Dauwpunt: 11°C
Vochtigheid: 88%
Barometer: 1022 hPa
Zicht: meer dan 10 km
Bewolking: Helder
ETNG 241850Z 07002KT CAVOK 13/11 Q1022
 

Script ontwikkeld door  Saratoga-weather.org Aangepast voor de template door  Weerstation Leuven

U vindt ons ook hier:

Het Weer Aktueel

UK Metoffice

European Weather Network

WeatherCloud

Weather Underground

Benelux Weer Netwerk

AWEKAS

WeatherlinkIP

Citizen Weather Observer Program (CWOP)

HAMweather, WeatherForYou, PWS Weather

Apparatuur in gebruik:

Hardwareleverancier
Weerhuisje

Weerstation
Vantage Pro2 Plus +UV

Weercomputer
AwekasBox (ALIX.3D2 PC)

Weerprogramma
Smartbedded

Weersatelliet
WRX137 & KX137

Bliksemdetectie
Boltek StormTracker PCI

Webleverancier
STRATO VPS Linux V80

Weerhuisje

Vantage Pro2 Plus +UV

AwekasBox (ALIX.3D2 PC)

Smartbedded

WRX137 & KX137

Boltek StormTracker PCI

STRATO VPS Linux V80